Time;durP1;ratioP1;P1;durP2;ratioP2;P2;SDS_P1;SDS_P2;PMS_P1;PMS_P2;Temp;Humidity;BMP_temperature;BMP_pressure;BME280_temperature;BME280_humidity;BME280_pressure;Samples;Min_cycle;Max_cycle;Signal;HPM_P1;HPM_P2
2023/01/29 00:00:08;;;;;;;;;70.33;56.33;;;;;2.41;70.90;102824.72;5140335;27;45476;-62
2023/01/29 00:02:37;;;;;;;;;72.67;55.67;;;;;2.45;71.02;102824.03;5140518;27;45753;-62
2023/01/29 00:05:05;;;;;;;;;72.00;56.33;;;;;2.46;70.34;102831.03;5138904;27;45300;-62
2023/01/29 00:07:30;;;;;;;;;79.00;59.00;;;;;2.43;70.98;102843.88;5139304;27;45433;-62
2023/01/29 00:09:55;;;;;;;;;76.00;59.33;;;;;2.33;71.79;102836.50;5140423;27;45344;-62
2023/01/29 00:12:21;;;;;;;;;74.00;58.00;;;;;2.40;71.42;102847.22;5140249;27;45439;-62
2023/01/29 00:14:46;;;;;;;;;69.67;54.67;;;;;2.29;70.67;102813.78;5140412;27;45932;-62
2023/01/29 00:17:11;;;;;;;;;80.50;60.75;;;;;2.32;71.49;102827.78;5140726;27;45220;-62
2023/01/29 00:19:37;;;;;;;;;77.25;59.50;;;;;2.28;72.10;102820.69;5138512;27;46637;-62
2023/01/29 00:22:02;;;;;;;;;78.25;56.25;;;;;2.24;71.96;102806.66;5140147;27;45423;-62
2023/01/29 00:24:27;;;;;;;;;69.67;53.00;;;;;2.30;71.49;102816.44;5140312;27;45384;-62
2023/01/29 00:26:53;;;;;;;;;72.33;56.67;;;;;2.27;71.11;102805.91;5136201;27;45409;-62
2023/01/29 00:29:18;;;;;;;;;79.00;58.25;;;;;2.21;72.18;102798.72;5140091;27;46526;-62
2023/01/29 00:31:44;;;;;;;;;74.67;56.67;;;;;2.31;71.75;102815.63;5139899;27;45366;-62
2023/01/29 00:34:09;;;;;;;;;81.33;58.67;;;;;2.28;72.16;102807.72;5138222;27;45280;-62
2023/01/29 00:36:35;;;;;;;;;78.75;59.75;;;;;2.33;72.42;102807.91;5140060;27;45460;-62
2023/01/29 00:39:02;;;;;;;;;71.33;52.67;;;;;2.37;72.30;102815.03;5139761;27;46258;-62
2023/01/29 00:47:01;;;;;;;;;75.00;58.25;;;;;2.42;71.82;102811.78;5140008;27;45405;-62
2023/01/29 00:49:26;;;;;;;;;71.67;57.00;;;;;2.41;71.46;102806.53;5138002;27;46123;-62
2023/01/29 00:52:25;;;;;;;;;72.67;53.67;;;;;2.42;71.73;102806.59;5139246;27;45418;-62
2023/01/29 00:54:43;;;;;;;;;56.25;38.75;;;;;2.41;71.53;102804.81;5136558;27;45628;-62
2023/01/29 00:57:08;;;;;;;;;68.67;52.00;;;;;2.17;71.58;102755.22;5139733;27;45207;-62
2023/01/29 00:59:34;;;;;;;;;77.25;58.25;;;;;2.43;71.54;102800.56;5139746;27;45463;-62
2023/01/29 01:04:43;;;;;;;;;63.00;48.33;;;;;2.40;71.40;102796.97;5138079;27;45508;-62
2023/01/29 01:07:08;;;;;;;;;72.00;52.67;;;;;2.43;71.57;102800.56;5139532;27;45359;-62
2023/01/29 01:12:19;;;;;;;;;74.00;57.33;;;;;2.53;71.63;102793.19;5139180;27;45456;-62
2023/01/29 01:14:45;;;;;;;;;72.50;56.50;;;;;2.55;71.56;102788.94;5139155;27;45479;-62
2023/01/29 01:17:10;;;;;;;;;65.33;51.00;;;;;2.53;70.85;102781.06;5139376;27;45797;-62
2023/01/29 01:19:36;;;;;;;;;74.00;58.25;;;;;2.58;71.28;102781.25;5138921;27;45306;-62
2023/01/29 01:22:03;;;;;;;;;79.75;61.25;;;;;2.56;70.80;102768.19;5130803;27;45240;-62
2023/01/29 01:24:29;;;;;;;;;78.33;58.33;;;;;2.58;70.89;102776.94;5118428;27;45373;-62
2023/01/29 01:26:54;;;;;;;;;79.50;56.50;;;;;2.57;71.67;102767.38;5118540;27;45438;-62
2023/01/29 01:29:20;;;;;;;;;82.00;59.75;;;;;2.60;71.30;102770.09;5118277;27;46633;-62
2023/01/29 01:31:45;;;;;;;;;84.75;63.50;;;;;2.63;71.50;102776.25;5134525;27;45343;-62
2023/01/29 01:34:11;;;;;;;;;82.00;56.25;;;;;2.65;71.56;102778.09;5137498;27;45518;-62
2023/01/29 01:36:36;;;;;;;;;78.75;59.25;;;;;2.65;71.44;102775.50;5139335;27;45301;-62
2023/01/29 01:39:02;;;;;;;;;83.25;58.00;;;;;2.71;71.61;102780.06;5136991;27;46440;-62
2023/01/29 01:41:29;;;;;;;;;80.25;58.25;;;;;2.78;71.60;102783.00;5139088;27;45373;-62
2023/01/29 01:44:01;;;;;;;;;77.75;59.25;;;;;2.84;71.26;102786.69;5138992;27;45396;-62
2023/01/29 01:46:32;;;;;;;;;82.25;61.25;;;;;2.87;71.31;102782.50;5138895;27;45492;-62
2023/01/29 01:49:03;;;;;;;;;77.50;58.00;;;;;2.91;70.71;102778.31;5138707;27;46392;-63
2023/01/29 01:51:33;;;;;;;;;76.75;58.25;;;;;2.96;70.78;102776.78;5138746;27;45251;-62
2023/01/29 01:54:06;;;;;;;;;78.67;58.33;;;;;2.97;70.09;102770.75;5134852;27;45382;-62
2023/01/29 01:56:39;;;;;;;;;77.50;58.50;;;;;3.00;70.46;102768.28;5138968;27;45225;-62
2023/01/29 01:59:14;;;;;;;;;77.25;60.25;;;;;3.01;70.57;102774.41;5134435;27;46745;-62
2023/01/29 02:01:46;;;;;;;;;78.25;58.25;;;;;3.03;70.45;102778.81;5138610;27;45235;-62
2023/01/29 02:10:14;;;;;;;;;75.75;57.75;;;;;3.00;71.00;102764.81;5138206;27;45464;-62
2023/01/29 02:12:40;;;;;;;;;68.00;56.33;;;;;3.04;70.31;102758.91;5138471;27;45209;-63
2023/01/29 02:15:07;;;;;;;;;72.25;55.75;;;;;3.02;69.64;102768.34;5138532;27;45265;-63
2023/01/29 02:17:32;;;;;;;;;77.50;57.00;;;;;3.02;71.05;102778.75;5135296;27;45476;-62
2023/01/29 02:20:06;;;;;;;;;80.50;60.50;;;;;3.05;70.99;102785.00;5123619;27;45555;-62
2023/01/29 02:22:54;;;;;;;;;78.75;60.50;;;;;3.07;71.37;102782.44;5111585;27;45456;-62
2023/01/29 02:25:34;;;;;;;;;83.25;61.50;;;;;3.11;71.58;102787.84;5138233;27;45331;-63
2023/01/29 02:28:11;;;;;;;;;80.50;59.75;;;;;3.18;71.59;102790.69;5138760;27;45416;-63
2023/01/29 02:30:43;;;;;;;;;84.75;61.00;;;;;3.21;71.21;102796.91;5138363;27;46202;-63
2023/01/29 02:33:37;;;;;;;;;76.00;58.33;;;;;3.29;70.65;102810.25;5141829;27;45329;-63
2023/01/29 02:36:03;;;;;;;;;72.25;57.00;;;;;3.34;70.24;102811.34;5140461;27;45205;-63
2023/01/29 02:39:04;;;;;;;;;77.25;60.00;;;;;3.31;70.59;102809.47;5140369;27;45433;-63
2023/01/29 02:41:38;;;;;;;;;83.50;60.25;;;;;3.29;70.88;102792.00;5109515;27;45719;-63
2023/01/29 02:44:21;;;;;;;;;70.33;52.67;;;;;3.29;70.31;102781.59;5141743;27;45440;-63
2023/01/29 02:47:12;;;;;;;;;71.00;55.67;;;;;3.42;70.25;102806.41;5141815;27;45443;-63
2023/01/29 02:50:21;;;;;;;;;74.25;57.00;;;;;3.36;69.53;102795.78;5142155;27;45712;-63
2023/01/29 02:53:25;;;;;;;;;78.75;59.00;;;;;3.21;70.75;102796.00;4996883;28;46178;-63
2023/01/29 02:56:09;;;;;;;;;79.00;58.75;;;;;3.28;71.61;102801.56;4956404;28;45740;-63
2023/01/29 02:58:43;;;;;;;;;78.00;59.00;;;;;3.32;71.59;102794.75;4958191;28;45347;-63
2023/01/29 03:01:30;;;;;;;;;83.00;60.25;;;;;3.37;71.29;102789.72;4958401;28;45477;-63
2023/01/29 03:04:02;;;;;;;;;76.67;57.33;;;;;3.46;70.78;102795.31;4957809;28;47716;-63
2023/01/29 03:06:49;;;;;;;;;79.00;60.75;;;;;3.46;71.07;102790.97;4958111;28;45780;-66
2023/01/29 03:09:36;;;;;;;;;77.75;58.50;;;;;3.43;70.39;102798.66;4957767;28;45405;-63
2023/01/29 03:12:32;;;;;;;;;78.25;58.00;;;;;3.45;71.01;102809.13;4956681;28;45336;-63
2023/01/29 03:15:11;;;;;;;;;61.67;46.33;;;;;3.36;70.46;102807.06;4957920;28;47437;-63
2023/01/29 03:17:44;;;;;;;;;79.00;60.00;;;;;3.25;72.16;102796.22;4957849;28;45515;-63
2023/01/29 03:20:15;;;;;;;;;80.00;60.25;;;;;3.31;72.28;102795.56;4957847;28;45492;-63
2023/01/29 03:22:49;;;;;;;;;83.67;60.33;;;;;3.42;71.67;102791.69;4957819;28;45527;-63
2023/01/29 03:34:15;;;;;;;;;73.00;57.50;;;;;3.47;71.16;102789.25;5141198;27;45498;-63
2023/01/29 03:37:12;;;;;;;;;73.67;55.67;;;;;3.51;71.09;102785.06;5140657;27;46549;-63
2023/01/29 03:39:38;;;;;;;;;68.25;51.00;;;;;3.40;70.47;102777.72;5139826;27;45243;-63
2023/01/29 03:42:08;;;;;;;;;81.50;60.00;;;;;3.30;71.04;102781.66;5139201;27;45505;-63
2023/01/29 03:44:51;;;;;;;;;79.75;60.50;;;;;3.25;72.11;102767.59;5141170;27;45519;-63
2023/01/29 03:47:44;;;;;;;;;76.67;58.00;;;;;3.35;71.66;102762.72;5140562;27;47582;-63
2023/01/29 03:50:46;;;;;;;;;79.00;60.50;;;;;3.47;71.24;102771.94;5056316;28;45266;-63
2023/01/29 03:53:46;;;;;;;;;76.00;60.00;;;;;3.51;71.58;102772.03;5056405;28;45379;-63
2023/01/29 03:56:38;;;;;;;;;83.25;63.00;;;;;3.55;71.24;102779.16;5056236;28;45548;-63
2023/01/29 03:59:34;;;;;;;;;80.75;58.75;;;;;3.56;71.42;102778.31;5054843;28;45444;-63
2023/01/29 04:02:06;;;;;;;;;79.00;56.67;;;;;3.57;70.57;102769.66;5055585;28;45428;-63
2023/01/29 04:04:37;;;;;;;;;80.00;59.25;;;;;3.47;70.33;102779.75;5054547;28;45499;-63
2023/01/29 04:07:12;;;;;;;;;76.50;58.25;;;;;3.43;70.45;102780.44;5056299;28;45389;-63
2023/01/29 04:09:48;;;;;;;;;83.25;61.25;;;;;3.35;70.57;102770.56;5055517;28;45549;-63
2023/01/29 04:12:20;;;;;;;;;76.75;60.75;;;;;3.28;71.88;102775.53;5055811;28;45882;-63
2023/01/29 04:14:48;;;;;;;;;87.75;63.50;;;;;3.28;72.26;102759.91;5056089;28;45438;-63
2023/01/29 04:17:19;;;;;;;;;76.50;57.25;;;;;3.36;71.80;102749.78;5056314;28;45534;-63
2023/01/29 04:19:44;;;;;;;;;79.75;61.25;;;;;3.52;71.42;102756.47;5055585;28;45287;-63
2023/01/29 04:22:22;;;;;;;;;75.67;56.67;;;;;3.18;70.56;102696.97;5054371;28;45386;-63
2023/01/29 04:24:49;;;;;;;;;76.00;58.75;;;;;3.45;71.31;102746.66;5055926;28;45552;-63
2023/01/29 04:27:39;;;;;;;;;78.33;58.33;;;;;3.51;71.17;102746.88;5100577;27;45425;-63
2023/01/29 04:30:43;;;;;;;;;82.50;59.50;;;;;3.46;71.38;102746.69;5139786;27;47073;-63
2023/01/29 04:33:22;;;;;;;;;72.67;55.67;;;;;3.45;70.66;102724.09;5076066;28;45483;-63
2023/01/29 04:36:15;;;;;;;;;77.33;58.00;;;;;3.49;70.45;102725.09;5075995;28;45310;-63
2023/01/29 04:39:03;;;;;;;;;69.67;56.00;;;;;3.47;70.62;102735.47;5074662;28;45739;-63
2023/01/29 04:41:34;;;;;;;;;71.67;56.33;;;;;3.51;70.06;102730.38;5075503;28;46664;-63
2023/01/29 04:44:14;;;;;;;;;74.67;55.67;;;;;3.49;70.86;102731.19;5075681;28;45757;-63
2023/01/29 04:46:46;;;;;;;;;79.33;57.00;;;;;3.56;70.88;102726.22;5072476;28;45470;-63
2023/01/29 04:49:24;;;;;;;;;62.33;50.33;;;;;3.64;70.25;102725.66;5055920;28;45397;-63
2023/01/29 04:51:56;;;;;;;;;76.67;55.00;;;;;3.67;70.27;102724.91;5055469;28;46238;-63
2023/01/29 04:54:36;;;;;;;;;74.00;55.67;;;;;3.62;70.64;102719.53;5054704;28;46073;-63
2023/01/29 04:57:24;;;;;;;;;67.67;53.67;;;;;3.74;70.48;102729.53;5073218;28;45479;-63
2023/01/29 04:59:58;;;;;;;;;67.00;54.00;;;;;3.74;70.28;102719.09;5075860;27;45431;-63
2023/01/29 05:02:26;;;;;;;;;71.00;53.00;;;;;3.83;70.36;102740.31;5075532;28;46284;-63
2023/01/29 05:04:54;;;;;;;;;70.00;54.67;;;;;3.78;70.33;102727.94;5075546;28;45513;-63
2023/01/29 05:07:22;;;;;;;;;69.00;53.00;;;;;3.87;69.72;102730.00;5075509;27;45445;-63
2023/01/29 05:09:48;;;;;;;;;74.33;52.00;;;;;3.80;70.09;102729.75;5097607;27;45364;-63
2023/01/29 05:12:16;;;;;;;;;72.67;55.00;;;;;3.77;70.04;102724.41;5134655;27;46696;-63
2023/01/29 05:14:44;;;;;;;;;68.00;52.67;;;;;3.82;70.54;102725.50;5139052;27;45421;-63
2023/01/29 05:17:15;;;;;;;;;66.33;50.67;;;;;3.85;69.63;102719.50;5139521;27;45502;-63
2023/01/29 05:19:40;;;;;;;;;65.67;54.67;;;;;3.90;70.24;102725.75;5139525;27;45261;-63
2023/01/29 05:22:10;;;;;;;;;68.67;51.67;;;;;3.98;69.69;102728.69;5137986;27;46194;-63
2023/01/29 05:24:35;;;;;;;;;71.00;53.00;;;;;3.94;69.75;102722.44;5139418;27;45318;-63
2023/01/29 05:29:46;;;;;;;;;63.33;46.00;;;;;4.04;69.26;102722.78;5137507;27;45313;-63
2023/01/29 05:32:12;;;;;;;;;72.67;53.33;;;;;3.97;69.29;102719.06;5137355;27;46262;-63
2023/01/29 05:34:37;;;;;;;;;75.00;53.00;;;;;3.95;69.59;102707.69;5138983;27;45486;-63
2023/01/29 05:37:02;;;;;;;;;69.00;53.33;;;;;3.97;69.55;102712.13;5139150;27;45844;-63
2023/01/29 05:39:28;;;;;;;;;69.67;50.00;;;;;4.02;69.44;102712.28;5139408;27;45328;-63
2023/01/29 05:41:53;;;;;;;;;66.67;50.67;;;;;4.01;69.40;102703.59;5138820;27;45468;-63
2023/01/29 05:44:19;;;;;;;;;72.00;51.33;;;;;4.08;69.23;102704.72;5139065;27;45362;-63
2023/01/29 05:46:44;;;;;;;;;63.67;47.00;;;;;4.09;68.87;102706.47;5139193;27;45422;-63
2023/01/29 05:49:10;;;;;;;;;51.67;40.00;;;;;4.06;68.74;102703.75;5137537;27;45438;-63
2023/01/29 05:51:36;;;;;;;;;59.00;48.33;;;;;4.03;69.25;102698.44;5138923;27;46356;-63
2023/01/29 05:54:01;;;;;;;;;59.33;47.67;;;;;4.04;68.86;102691.50;5138676;27;45387;-63
2023/01/29 05:56:26;;;;;;;;;66.67;48.33;;;;;3.78;68.40;102647.16;5138929;27;45255;-63
2023/01/29 05:58:51;;;;;;;;;66.00;52.67;;;;;4.00;68.42;102696.59;5139092;27;45734;-63
2023/01/29 06:01:20;;;;;;;;;64.00;49.00;;;;;3.94;68.55;102696.38;5138541;27;46260;-63
2023/01/29 06:03:46;;;;;;;;;61.33;47.00;;;;;3.94;68.72;102700.72;5138821;27;45445;-63
2023/01/29 06:06:11;;;;;;;;;59.33;50.00;;;;;3.95;68.88;102699.88;5138325;27;45326;-63
2023/01/29 06:08:37;;;;;;;;;79.67;57.33;;;;;3.97;68.99;102708.66;5142716;27;45319;-63
2023/01/29 06:11:03;;;;;;;;;59.67;49.33;;;;;3.92;68.91;102698.06;5141992;27;45547;-63
2023/01/29 06:13:29;;;;;;;;;73.50;58.75;;;;;3.89;68.88;102690.09;5142387;27;45377;-63
2023/01/29 06:15:54;;;;;;;;;75.00;54.67;;;;;3.94;69.22;102696.38;5142347;27;45388;-63
2023/01/29 06:18:19;;;;;;;;;69.00;49.67;;;;;4.01;68.35;102714.03;5142528;27;45434;-63
2023/01/29 06:20:45;;;;;;;;;67.00;49.00;;;;;3.91;68.88;102711.03;5140846;27;45437;-63
2023/01/29 06:23:10;;;;;;;;;63.00;50.00;;;;;3.86;69.01;102700.41;5142286;27;45253;-63
2023/01/29 06:25:36;;;;;;;;;66.67;49.33;;;;;3.90;69.33;102698.84;5142183;27;45813;-63
2023/01/29 06:28:01;;;;;;;;;70.33;51.67;;;;;3.85;68.74;102683.03;5142386;27;45311;-63
2023/01/29 06:30:27;;;;;;;;;72.00;50.00;;;;;3.70;69.10;102680.72;5142113;27;45481;-62
2023/01/29 06:33:03;;;;;;;;;76.67;58.00;;;;;3.66;69.07;102689.28;5141886;27;45492;-62
2023/01/29 06:35:28;;;;;;;;;71.33;55.67;;;;;3.49;69.51;102666.09;5142117;27;45439;-65
2023/01/29 06:37:55;;;;;;;;;70.67;51.33;;;;;3.60;69.79;102679.53;5140603;27;45476;-63
2023/01/29 06:40:20;;;;;;;;;60.00;49.33;;;;;3.60;70.34;102666.50;5141937;27;45438;-63
2023/01/29 06:42:45;;;;;;;;;68.33;48.00;;;;;3.67;69.38;102665.00;5141735;27;45386;-63
2023/01/29 06:45:11;;;;;;;;;58.00;46.67;;;;;3.75;69.33;102670.50;5142027;27;45313;-63
2023/01/29 06:47:36;;;;;;;;;67.33;48.33;;;;;3.71;69.77;102666.00;5142210;27;45293;-63
2023/01/29 06:50:02;;;;;;;;;62.67;47.00;;;;;3.78;69.88;102678.44;5141624;27;45432;-63
2023/01/29 06:52:27;;;;;;;;;61.67;48.00;;;;;3.83;69.83;102682.06;5140609;27;45363;-63
2023/01/29 06:54:54;;;;;;;;;60.67;46.00;;;;;3.82;69.07;102678.59;5141253;27;45880;-63
2023/01/29 06:57:19;;;;;;;;;58.00;45.00;;;;;3.66;69.49;102658.03;5141835;27;45466;-62
2023/01/29 06:59:44;;;;;;;;;59.00;47.33;;;;;3.66;69.58;102655.44;5141256;27;46504;-62
2023/01/29 07:02:10;;;;;;;;;61.00;45.33;;;;;3.66;69.69;102664.13;5141552;27;45440;-63
2023/01/29 07:04:36;;;;;;;;;58.33;46.67;;;;;3.70;69.94;102657.28;5141681;27;45649;-63
2023/01/29 07:07:02;;;;;;;;;58.33;46.67;;;;;3.81;70.27;102682.03;5141757;27;45391;-65
2023/01/29 07:09:27;;;;;;;;;63.33;45.33;;;;;3.86;70.09;102666.53;5139514;27;46460;-65
2023/01/29 07:11:52;;;;;;;;;50.67;40.67;;;;;3.89;69.66;102664.03;5140466;27;45444;-65
2023/01/29 07:14:18;;;;;;;;;54.00;42.00;;;;;3.84;69.37;102656.06;5140131;27;45214;-65
2023/01/29 07:16:43;;;;;;;;;71.00;50.67;;;;;3.79;70.32;102665.47;5140384;27;45458;-65
2023/01/29 07:19:08;;;;;;;;;56.00;46.33;;;;;3.79;70.15;102664.56;5139981;27;46477;-65
2023/01/29 07:21:34;;;;;;;;;55.67;45.33;;;;;3.84;70.26;102666.50;5140015;27;45426;-65
2023/01/29 07:23:59;;;;;;;;;57.67;46.67;;;;;3.92;70.08;102672.00;5138450;27;45480;-63
2023/01/29 07:26:24;;;;;;;;;54.67;43.67;;;;;3.93;70.13;102670.28;5140356;27;45474;-63
2023/01/29 07:28:50;;;;;;;;;62.00;43.67;;;;;3.88;69.94;102648.34;5139848;27;46506;-63
2023/01/29 07:31:15;;;;;;;;;55.00;43.67;;;;;3.99;69.44;102662.66;5139967;27;45373;-63
2023/01/29 07:33:44;;;;;;;;;59.33;46.33;;;;;4.08;69.23;102673.44;5140112;27;45349;-63
2023/01/29 07:36:11;;;;;;;;;52.67;44.00;;;;;3.99;69.48;102673.09;5140176;27;45247;-63
2023/01/29 07:38:36;;;;;;;;;53.67;44.00;;;;;3.72;69.60;102632.19;5139662;27;47297;-64
2023/01/29 07:41:02;;;;;;;;;62.33;44.33;;;;;3.94;69.27;102672.94;5138107;27;45220;-65
2023/01/29 07:43:27;;;;;;;;;49.33;42.33;;;;;3.93;69.20;102678.97;5139569;27;45467;-65
2023/01/29 07:45:52;;;;;;;;;60.00;46.67;;;;;3.80;70.01;102667.22;5139988;27;45257;-65
2023/01/29 07:48:18;;;;;;;;;56.33;41.67;;;;;3.95;70.07;102685.13;5139792;27;45783;-63
2023/01/29 07:50:44;;;;;;;;;56.00;43.33;;;;;3.99;69.94;102679.22;5139427;27;45480;-63
2023/01/29 07:53:13;;;;;;;;;62.00;46.67;;;;;4.01;70.39;102684.47;5139717;27;45339;-63
2023/01/29 07:55:39;;;;;;;;;52.67;43.33;;;;;4.06;69.91;102682.91;5139731;27;45476;-63
2023/01/29 07:58:05;;;;;;;;;55.67;47.00;;;;;4.13;69.29;102682.28;5137305;27;45601;-65
2023/01/29 08:00:31;;;;;;;;;57.33;44.33;;;;;4.09;69.36;102690.81;5139074;27;45336;-63
2023/01/29 08:03:23;;;;;;;;;58.67;45.33;;;;;4.07;69.77;102696.84;5139479;27;45382;-63
2023/01/29 08:05:48;;;;;;;;;68.33;51.67;;;;;3.96;69.15;102681.69;5135320;27;45505;-63
2023/01/29 08:08:14;;;;;;;;;60.00;44.67;;;;;3.72;69.60;102633.91;5139062;27;47118;-62
2023/01/29 08:10:40;;;;;;;;;57.33;43.67;;;;;4.10;69.29;102708.25;5096393;27;1199385;-62
2023/01/29 08:13:06;;;;;;;;;61.00;46.00;;;;;4.05;69.29;102682.84;5138728;27;45488;-63
2023/01/29 08:15:33;;;;;;;;;60.67;45.00;;;;;4.15;69.78;102700.59;5140608;27;45449;-65
2023/01/29 08:18:00;;;;;;;;;55.33;41.00;;;;;4.17;69.14;102691.13;5140053;27;45579;-63
2023/01/29 08:20:25;;;;;;;;;49.33;34.33;;;;;4.15;69.78;102684.94;5140135;27;45544;-63
2023/01/29 08:23:04;;;;;;;;;60.67;47.00;;;;;4.26;69.08;102698.38;5140439;27;45310;-63
2023/01/29 08:25:31;;;;;;;;;28.67;23.00;;;;;4.23;69.15;102690.44;5140556;27;45306;-63
2023/01/29 08:27:57;;;;;;;;;62.00;47.00;;;;;4.21;69.09;102689.50;5139424;27;46450;-63
2023/01/29 08:30:25;;;;;;;;;53.00;43.00;;;;;4.21;69.12;102694.72;5137982;27;45578;-63
2023/01/29 08:32:50;;;;;;;;;62.67;42.00;;;;;4.20;69.35;102693.84;5140164;27;45388;-63
2023/01/29 08:35:16;;;;;;;;;59.33;44.33;;;;;4.21;69.22;102684.28;5140269;27;45402;-63
2023/01/29 08:37:41;;;;;;;;;55.00;40.33;;;;;4.18;69.36;102672.91;5139992;27;47502;-63
2023/01/29 08:40:09;;;;;;;;;61.33;47.67;;;;;4.27;68.57;102684.47;5139767;27;45475;-63
2023/01/29 08:42:35;;;;;;;;;57.67;44.67;;;;;4.27;68.96;102680.19;5139852;27;45390;-63
2023/01/29 08:45:00;;;;;;;;;55.67;45.33;;;;;4.28;68.70;102689.75;5139885;27;45219;-63
2023/01/29 08:47:25;;;;;;;;;53.67;40.67;;;;;4.24;68.65;102680.06;5138424;27;45256;-63
2023/01/29 08:49:51;;;;;;;;;63.00;42.00;;;;;4.24;69.05;102677.47;5139855;27;45227;-63
2023/01/29 08:52:16;;;;;;;;;55.00;43.33;;;;;4.25;69.06;102675.72;5139428;27;45321;-63
2023/01/29 08:54:41;;;;;;;;;61.00;46.00;;;;;4.36;69.19;102688.31;5140083;27;45724;-63
2023/01/29 08:57:06;;;;;;;;;108.25;98.75;;;;;4.45;68.66;102694.69;5139300;27;46644;-63
2023/01/29 08:59:32;;;;;;;;;57.00;46.00;;;;;4.47;68.92;102691.28;5128859;27;45657;-64
2023/01/29 09:01:57;;;;;;;;;60.67;45.00;;;;;4.48;68.59;102684.34;5118015;27;45429;-63
2023/01/29 09:04:22;;;;;;;;;62.33;47.33;;;;;4.49;68.73;102683.53;5118051;27;45493;-64
2023/01/29 09:06:48;;;;;;;;;57.00;43.67;;;;;4.49;68.64;102684.41;5116414;27;47198;-63
2023/01/29 09:09:13;;;;;;;;;59.33;45.00;;;;;4.52;68.70;102678.41;5117619;27;45354;-64
2023/01/29 09:11:39;;;;;;;;;60.00;43.67;;;;;4.48;68.19;102674.78;5109614;27;45452;-66
2023/01/29 09:14:04;;;;;;;;;54.00;40.00;;;;;4.47;68.09;102673.03;5117040;27;45522;-65
2023/01/29 09:16:30;;;;;;;;;53.33;41.67;;;;;4.49;68.06;102665.25;5117961;27;45421;-62
2023/01/29 09:18:55;;;;;;;;;57.33;43.33;;;;;4.49;68.07;102667.88;5118038;27;45352;-64
2023/01/29 09:21:20;;;;;;;;;60.00;43.00;;;;;4.56;67.82;102677.66;5119381;27;46073;-63
2023/01/29 09:23:46;;;;;;;;;53.33;40.33;;;;;4.59;67.47;102675.16;5139636;27;45420;-64
2023/01/29 09:26:11;;;;;;;;;51.00;39.00;;;;;4.63;67.45;102678.75;5129233;27;46596;-64
2023/01/29 09:28:36;;;;;;;;;50.67;39.33;;;;;4.59;67.51;102671.66;5117594;27;45439;-65
2023/01/29 09:31:02;;;;;;;;;47.00;39.67;;;;;4.60;67.75;102683.88;5118186;27;45381;-66
2023/01/29 09:33:28;;;;;;;;;45.33;39.67;;;;;4.62;67.71;102672.66;5117936;27;45347;-66
2023/01/29 09:35:53;;;;;;;;;44.67;38.00;;;;;4.65;67.62;102679.69;5114913;27;47731;-64
2023/01/29 09:38:19;;;;;;;;;46.00;39.33;;;;;4.57;67.67;102669.00;5117656;27;45438;-65
2023/01/29 09:41:06;;;;;;;;;41.67;35.00;;;;;4.69;67.47;102684.16;5118986;27;45601;-64
2023/01/29 09:43:40;;;;;;;;;44.67;36.33;;;;;4.72;67.35;102684.28;5117655;27;45401;-64
2023/01/29 09:46:43;;;;;;;;;47.33;39.67;;;;;4.47;66.89;102640.81;5117997;27;46102;-64
2023/01/29 09:49:19;;;;;;;;;47.33;40.33;;;;;4.47;67.75;102633.91;5114820;27;45396;-64
2023/01/29 09:51:50;;;;;;;;;40.67;35.67;;;;;4.75;67.32;102673.94;5117803;27;45562;-63
2023/01/29 09:54:23;;;;;;;;;44.67;37.33;;;;;4.80;67.20;102677.56;5118180;27;45472;-64
2023/01/29 09:56:53;;;;;;;;;42.00;38.00;;;;;4.83;67.17;102680.28;5117916;27;45799;-64
2023/01/29 09:59:21;;;;;;;;;37.00;35.67;;;;;4.76;67.14;102660.03;5117938;27;45372;-64
2023/01/29 10:02:21;;;;;;;;;47.67;39.33;;;;;4.85;67.63;102670.78;5118028;27;45334;-63
2023/01/29 10:04:50;;;;;;;;;57.33;39.33;;;;;4.90;67.24;102668.31;5113973;27;45419;-64
2023/01/29 10:07:39;;;;;;;;;49.00;37.33;;;;;4.89;67.16;102663.94;5129843;27;46216;-64
2023/01/29 10:10:29;;;;;;;;;43.00;37.33;;;;;4.96;67.64;102665.03;5116940;27;45438;-64
2023/01/29 10:13:19;;;;;;;;;43.00;36.33;;;;;5.02;66.61;102660.84;5134712;27;45609;-64
2023/01/29 10:16:03;;;;;;;;;45.67;39.00;;;;;5.05;66.76;102655.75;5138352;27;45363;-64
2023/01/29 10:19:04;;;;;;;;;50.67;40.00;;;;;4.93;66.90;102631.88;5118770;27;45496;-64
2023/01/29 10:22:20;;;;;;;;;48.00;38.00;;;;;5.04;66.51;102640.94;5117772;27;45414;-64
2023/01/29 10:25:09;;;;;;;;;40.00;36.67;;;;;5.11;66.61;102643.72;5033983;28;45427;-64
2023/01/29 10:27:38;;;;;;;;;57.67;42.33;;;;;5.10;66.44;102636.72;5046875;28;45496;-64
2023/01/29 10:30:10;;;;;;;;;55.67;41.33;;;;;5.14;66.20;102642.09;5053669;28;45516;-64
2023/01/29 10:32:36;;;;;;;;;49.00;40.00;;;;;5.17;66.26;102646.50;5052408;28;45396;-64
2023/01/29 10:35:12;;;;;;;;;51.00;40.67;;;;;5.22;66.48;102647.53;5033385;28;45353;-64
2023/01/29 10:37:42;;;;;;;;;55.67;45.00;;;;;5.26;66.27;102640.66;5034347;28;45481;-64
2023/01/29 10:40:22;;;;;;;;;52.33;38.67;;;;;5.32;65.74;102638.28;5031776;28;46021;-63
2023/01/29 10:43:00;;;;;;;;;48.33;39.00;;;;;5.37;66.01;102623.59;5040547;28;45871;-63
2023/01/29 10:45:40;;;;;;;;;51.33;36.33;;;;;5.35;65.50;102620.94;5035816;28;47245;-63
2023/01/29 10:48:35;;;;;;;;;42.67;37.67;;;;;5.51;65.32;102626.63;5022717;28;45495;-64
2023/01/29 10:51:16;;;;;;;;;47.00;39.00;;;;;5.50;65.29;102635.28;5032577;28;46244;-64
2023/01/29 10:53:54;;;;;;;;;54.33;40.33;;;;;5.46;65.39;102625.59;5036297;28;45428;-64
2023/01/29 10:56:55;;;;;;;;;55.33;42.33;;;;;5.60;65.04;102629.47;5094398;27;45467;-64
2023/01/29 10:59:42;;;;;;;;;64.00;48.33;;;;;5.63;65.14;102624.34;5099048;27;45354;-64
2023/01/29 11:02:16;;;;;;;;;56.00;40.00;;;;;5.56;64.94;102610.25;5099074;27;47670;-64
2023/01/29 11:04:42;;;;;;;;;49.00;36.67;;;;;5.56;64.61;102597.16;5131321;27;45601;-65
2023/01/29 11:07:07;;;;;;;;;43.67;37.00;;;;;5.77;65.00;102611.66;5136457;27;45429;-64
2023/01/29 11:09:48;;;;;;;;;52.00;39.67;;;;;5.83;64.68;102609.22;5120301;27;45515;-64
2023/01/29 11:12:18;;;;;;;;;52.67;39.00;;;;;5.91;64.14;102607.69;5119638;27;45535;-64
2023/01/29 11:14:46;;;;;;;;;36.00;31.33;;;;;5.98;64.44;102605.28;5119130;27;45307;-64
2023/01/29 11:17:23;;;;;;;;;41.67;37.33;;;;;5.90;63.54;102587.63;5119022;27;46016;-64
2023/01/29 11:19:50;;;;;;;;;52.00;38.67;;;;;6.04;64.45;102589.75;5116988;27;45565;-64
2023/01/29 11:22:18;;;;;;;;;51.00;38.67;;;;;6.10;63.43;102590.78;5126250;27;45989;-64
2023/01/29 11:24:44;;;;;;;;;43.33;36.00;;;;;6.15;63.48;102580.44;5119151;27;45466;-64
2023/01/29 11:27:34;;;;;;;;;37.00;35.33;;;;;6.21;63.45;102577.97;5119855;27;45473;-63
2023/01/29 11:30:00;;;;;;;;;45.00;36.00;;;;;6.26;63.11;102573.75;5118715;27;45791;-63
2023/01/29 11:32:28;;;;;;;;;39.33;35.33;;;;;6.28;63.13;102558.09;5118120;27;45596;-64
2023/01/29 11:35:02;;;;;;;;;48.00;34.67;;;;;6.37;62.55;102560.03;5118660;27;45425;-64
2023/01/29 11:37:31;;;;;;;;;46.00;35.67;;;;;6.41;62.43;102556.66;5126972;27;45393;-65
2023/01/29 11:39:57;;;;;;;;;47.67;38.33;;;;;6.32;61.86;102525.03;5123731;27;45406;-65
2023/01/29 11:42:22;;;;;;;;;43.00;33.00;;;;;6.48;62.18;102550.72;5118658;27;46509;-65
2023/01/29 11:44:48;;;;;;;;;39.33;31.33;;;;;6.50;61.83;102564.72;5118725;27;45529;-65
2023/01/29 11:47:28;;;;;;;;;47.67;36.67;;;;;6.47;61.96;102551.56;5118482;27;45483;-64
2023/01/29 11:50:00;;;;;;;;;49.00;35.33;;;;;6.37;61.60;102520.81;5116149;27;45938;-65
2023/01/29 11:52:37;;;;;;;;;42.00;36.00;;;;;6.35;61.94;102518.16;5118753;27;46396;-64
2023/01/29 11:55:12;;;;;;;;;38.67;36.33;;;;;6.47;61.64;102524.53;5121497;27;45576;-64
2023/01/29 11:57:42;;;;;;;;;36.33;33.33;;;;;6.42;61.81;102514.84;5114950;27;45484;-64
2023/01/29 12:00:24;;;;;;;;;47.67;37.67;;;;;6.51;61.45;102523.75;5118081;27;45486;-64
2023/01/29 12:03:16;;;;;;;;;48.00;35.00;;;;;6.55;61.60;102523.84;5117672;27;46157;-63
2023/01/29 12:05:55;;;;;;;;;45.67;34.00;;;;;6.57;61.26;102502.94;5118428;27;45338;-64